Time;durP1;ratioP1;P1;durP2;ratioP2;P2;SDS_P1;SDS_P2;PMS_P1;PMS_P2;Temp;Humidity;BMP_temperature;BMP_pressure;BME280_temperature;BME280_humidity;BME280_pressure;Samples;Min_cycle;Max_cycle;Signal;HPM_P1;HPM_P2
2021/11/04 00:01:50;;;;;;;;;;;;;;;22.16;32.41;98084.31;5072994;28;1198;-80
2021/11/04 00:04:15;;;;;;;;;;;;;;;22.02;32.43;98091.16;5072695;28;1149;-79
2021/11/04 00:06:41;;;;;;;;;;;;;;;22.03;32.49;98092.75;5073701;28;745;-81
2021/11/04 00:09:06;;;;;;;;;;;;;;;21.99;32.20;98096.91;5054109;28;995;-80
2021/11/04 00:11:31;;;;;;;;;;;;;;;22.22;31.73;98099.53;5011651;28;1855;-81
2021/11/04 00:13:58;;;;;;;;;;;;;;;22.24;31.78;98091.41;4994915;28;939;-81
2021/11/04 00:16:23;;;;;;;;;;;;;;;22.19;31.74;98083.44;5011991;28;1958;-79
2021/11/04 00:18:49;;;;;;;;;;;;;;;22.05;31.83;98078.13;5010834;28;957;-79
2021/11/04 00:21:14;;;;;;;;;;;;;;;22.26;31.73;98071.09;5011867;28;1738;-80
2021/11/04 00:23:40;;;;;;;;;;;;;;;21.92;32.30;98068.78;4994130;28;1186;-81
2021/11/04 00:26:05;;;;;;;;;;;;;;;22.31;32.43;98074.19;4973494;28;1251;-78
2021/11/04 00:28:31;;;;;;;;;;;;;;;22.49;33.34;98058.72;4970962;28;890;-80
2021/11/04 00:30:56;;;;;;;;;;;;;;;22.38;34.00;98056.16;4973553;29;1619;-79
2021/11/04 00:33:21;;;;;;;;;;;;;;;22.26;33.78;98049.22;4970592;29;1025;-80
2021/11/04 00:35:47;;;;;;;;;;;;;;;22.21;33.15;98055.44;4974117;29;1958;-80
2021/11/04 00:38:12;;;;;;;;;;;;;;;22.44;32.61;98040.22;4971509;29;906;-81
2021/11/04 00:40:39;;;;;;;;;;;;;;;22.27;32.40;98050.78;4953272;29;1683;-80
2021/11/04 00:43:04;;;;;;;;;;;;;;;22.35;32.22;98052.19;4996670;28;872;-80
2021/11/04 00:45:30;;;;;;;;;;;;;;;21.92;32.79;98055.41;5011478;28;963;-79
2021/11/04 00:47:55;;;;;;;;;;;;;;;22.05;32.61;98058.28;5010586;28;957;-80
2021/11/04 00:50:21;;;;;;;;;;;;;;;22.08;32.63;98054.56;5010043;28;1668;-79
2021/11/04 00:52:47;;;;;;;;;;;;;;;22.05;32.54;98066.78;4995022;28;986;-80
2021/11/04 00:55:12;;;;;;;;;;;;;;;22.28;31.74;98075.09;5010783;28;833;-80
2021/11/04 00:57:38;;;;;;;;;;;;;;;22.14;31.97;98063.34;4987265;28;1966;-81
2021/11/04 01:00:04;;;;;;;;;;;;;;;22.12;32.09;98054.47;4990351;28;1581;-81
2021/11/04 01:02:30;;;;;;;;;;;;;;;22.08;32.01;98057.41;4991894;28;995;-81
2021/11/04 01:04:55;;;;;;;;;;;;;;;22.08;32.00;98057.41;4990965;28;1058;-79
2021/11/04 01:07:20;;;;;;;;;;;;;;;22.07;31.66;98047.28;4991916;28;908;-78
2021/11/04 01:09:46;;;;;;;;;;;;;;;22.04;31.88;98053.88;4989913;28;1578;-80
2021/11/04 01:12:11;;;;;;;;;;;;;;;22.05;31.86;98050.56;4967984;29;1036;-80
2021/11/04 01:14:37;;;;;;;;;;;;;;;22.15;33.16;98037.38;4970820;29;955;-80
2021/11/04 01:17:02;;;;;;;;;;;;;;;22.27;33.75;98039.47;4972586;29;1880;-81
2021/11/04 01:19:28;;;;;;;;;;;;;;;22.33;34.13;98042.56;4970549;29;1670;-81
2021/11/04 01:21:53;;;;;;;;;;;;;;;22.22;33.29;98048.50;4972474;29;915;-80
2021/11/04 01:24:18;;;;;;;;;;;;;;;22.09;33.06;98044.81;4970551;29;989;-80
2021/11/04 01:26:44;;;;;;;;;;;;;;;22.04;32.53;98048.19;4972746;29;950;-80
2021/11/04 01:29:10;;;;;;;;;;;;;;;22.06;32.17;98042.88;4970887;29;1428;-79
2021/11/04 01:31:35;;;;;;;;;;;;;;;22.28;32.09;98040.28;4957275;29;1089;-79
2021/11/04 01:34:00;;;;;;;;;;;;;;;22.17;32.04;98040.56;4972446;28;878;-79
2021/11/04 01:36:26;;;;;;;;;;;;;;;22.19;32.03;98035.25;4992139;28;1887;-79
2021/11/04 01:38:51;;;;;;;;;;;;;;;22.18;31.80;98025.16;4990471;28;1017;-80
2021/11/04 01:41:17;;;;;;;;;;;;;;;22.09;32.10;98033.50;4995723;28;1760;-80
2021/11/04 01:43:43;;;;;;;;;;;;;;;22.28;31.79;98041.06;5038473;28;972;-80
2021/11/04 01:46:08;;;;;;;;;;;;;;;22.25;31.48;98036.28;5057061;28;895;-79
2021/11/04 01:48:34;;;;;;;;;;;;;;;22.05;32.22;98032.78;5054455;28;833;-79
2021/11/04 01:50:59;;;;;;;;;;;;;;;22.08;31.89;98037.56;5022508;28;1584;-80
2021/11/04 01:53:25;;;;;;;;;;;;;;;22.11;33.73;98039.53;5033349;28;1029;-80
2021/11/04 01:55:50;;;;;;;;;;;;;;;22.21;34.08;98035.59;5037028;28;1890;-81
2021/11/04 01:58:16;;;;;;;;;;;;;;;22.33;34.03;98040.53;5033828;28;1004;-79
2021/11/04 02:00:42;;;;;;;;;;;;;;;22.06;33.56;98052.16;5049638;28;1560;-80
2021/11/04 02:03:25;;;;;;;;;;;;;;;22.14;33.42;98052.03;5054847;28;1004;-80
2021/11/04 02:05:55;;;;;;;;;;;;;;;22.20;32.87;98061.56;5056493;28;1031;-80
2021/11/04 02:08:22;;;;;;;;;;;;;;;22.21;32.39;98066.78;5053596;28;987;-81
2021/11/04 02:10:48;;;;;;;;;;;;;;;22.09;32.67;98059.00;5055715;28;1592;-80
2021/11/04 02:13:16;;;;;;;;;;;;;;;22.21;32.19;98063.94;5036386;28;913;-80
2021/11/04 02:15:42;;;;;;;;;;;;;;;22.19;32.41;98065.63;5038359;28;1887;-79
2021/11/04 02:18:08;;;;;;;;;;;;;;;22.22;32.06;98067.56;5037184;28;870;-80
2021/11/04 02:20:45;;;;;;;;;;;;;;;22.03;32.43;98053.06;5037603;28;1565;-78
2021/11/04 02:23:13;;;;;;;;;;;;;;;22.01;32.20;98057.59;5036968;28;927;-80
2021/11/04 02:25:38;;;;;;;;;;;;;;;22.10;32.05;98058.56;5055595;28;912;-78
2021/11/04 02:28:06;;;;;;;;;;;;;;;22.21;31.63;98068.81;5054290;28;988;-81
2021/11/04 02:30:31;;;;;;;;;;;;;;;22.21;31.74;98063.94;5037663;28;1558;-79
2021/11/04 02:32:57;;;;;;;;;;;;;;;22.34;31.32;98078.97;5054197;28;1086;-80
2021/11/04 02:35:22;;;;;;;;;;;;;;;22.08;31.47;98063.88;5037050;28;1946;-78
2021/11/04 02:37:48;;;;;;;;;;;;;;;22.16;31.56;98075.81;5054675;28;1068;-80
2021/11/04 02:40:14;;;;;;;;;;;;;;;22.15;31.35;98071.41;5037029;28;1553;-80
2021/11/04 02:42:39;;;;;;;;;;;;;;;22.19;31.21;98076.97;5013529;28;978;-80
2021/11/04 02:45:05;;;;;;;;;;;;;;;22.22;31.33;98076.84;4996411;28;951;-79
2021/11/04 02:47:30;;;;;;;;;;;;;;;22.16;31.06;98075.03;4997571;28;871;-80
2021/11/04 02:49:56;;;;;;;;;;;;;;;22.08;31.09;98077.25;5011405;28;1586;-80
2021/11/04 02:52:22;;;;;;;;;;;;;;;22.22;30.92;98078.91;5013801;28;970;-81
2021/11/04 02:54:53;;;;;;;;;;;;;;;22.08;31.25;98068.75;5011893;28;959;-80
2021/11/04 02:57:19;;;;;;;;;;;;;;;22.13;31.21;98061.75;5014443;28;1891;-81
2021/11/04 02:59:45;;;;;;;;;;;;;;;21.77;31.00;98020.22;5011713;28;1538;-78
2021/11/04 03:02:10;;;;;;;;;;;;;;;22.04;30.93;98070.88;5012557;28;1766;-80
2021/11/04 03:04:36;;;;;;;;;;;;;;;22.16;32.92;98072.19;5012059;28;1157;-80
2021/11/04 03:07:01;;;;;;;;;;;;;;;22.33;32.96;98077.38;5013250;28;931;-80
2021/11/04 03:09:26;;;;;;;;;;;;;;;22.39;33.58;98085.34;5011824;28;1663;-81
2021/11/04 03:11:52;;;;;;;;;;;;;;;22.31;33.16;98085.50;5012863;28;931;-79
2021/11/04 03:14:17;;;;;;;;;;;;;;;22.21;33.03;98078.09;5044072;28;994;-80
2021/11/04 03:16:44;;;;;;;;;;;;;;;22.20;32.53;98079.34;5054597;28;1878;-80
2021/11/04 03:19:10;;;;;;;;;;;;;;;22.05;32.75;98078.91;5052935;28;1619;-80
2021/11/04 03:21:37;;;;;;;;;;;;;;;22.01;32.39;98088.75;5037325;28;981;-80
2021/11/04 03:24:03;;;;;;;;;;;;;;;22.00;32.54;98081.50;5053691;28;925;-80
2021/11/04 03:26:29;;;;;;;;;;;;;;;21.81;32.89;98086.03;5036857;28;930;-81
2021/11/04 03:28:54;;;;;;;;;;;;;;;22.03;32.40;98094.78;5052728;28;1643;-79
2021/11/04 03:31:20;;;;;;;;;;;;;;;22.07;32.40;98087.78;5054008;28;945;-80
2021/11/04 03:33:45;;;;;;;;;;;;;;;21.99;32.18;98091.25;5034603;28;992;-78
2021/11/04 03:36:11;;;;;;;;;;;;;;;22.04;32.12;98093.53;5053770;28;1879;-80
2021/11/04 03:38:36;;;;;;;;;;;;;;;22.19;31.79;98100.44;5034338;28;1620;-79
2021/11/04 03:41:02;;;;;;;;;;;;;;;22.22;31.81;98099.53;5037788;28;946;-80
2021/11/04 03:43:27;;;;;;;;;;;;;;;22.01;31.86;98088.75;5034841;28;993;-80
2021/11/04 03:45:52;;;;;;;;;;;;;;;22.19;31.61;98082.66;5037468;28;993;-79
2021/11/04 03:48:18;;;;;;;;;;;;;;;22.18;31.52;98087.53;5033627;28;1568;-80
2021/11/04 03:50:43;;;;;;;;;;;;;;;22.13;31.31;98079.56;5053827;28;860;-80
2021/11/04 03:53:10;;;;;;;;;;;;;;;22.32;31.30;98098.44;5013832;28;1020;-79
2021/11/04 03:55:35;;;;;;;;;;;;;;;22.38;32.68;98093.00;5032190;28;1945;-78
2021/11/04 03:58:01;;;;;;;;;;;;;;;22.49;33.22;98087.06;5030355;28;1572;-80
2021/11/04 04:00:26;;;;;;;;;;;;;;;22.38;33.63;98086.56;5048224;28;959;-79
2021/11/04 04:02:52;;;;;;;;;;;;;;;22.16;33.23;98072.97;5030153;28;969;-80
2021/11/04 04:05:27;;;;;;;;;;;;;;;22.10;33.13;98069.06;5010680;28;1100;-79
2021/11/04 04:07:52;;;;;;;;;;;;;;;22.23;32.77;98072.00;4991703;28;1519;-79
2021/11/04 04:10:18;;;;;;;;;;;;;;;22.22;32.19;98076.06;4976059;28;1152;-80
2021/11/04 04:12:44;;;;;;;;;;;;;;;22.11;32.38;98082.03;4975772;28;927;-80
2021/11/04 04:15:09;;;;;;;;;;;;;;;22.09;32.54;98078.81;4991052;28;905;-80
2021/11/04 04:17:35;;;;;;;;;;;;;;;22.23;31.91;98075.63;4993021;28;1957;-80
2021/11/04 04:20:00;;;;;;;;;;;;;;;22.28;31.99;98085.63;5010160;28;906;-79
2021/11/04 04:22:26;;;;;;;;;;;;;;;22.06;32.31;98085.38;4995456;28;1089;-79
2021/11/04 04:24:51;;;;;;;;;;;;;;;22.10;32.17;98074.75;5010665;28;1105;-80
2021/11/04 04:27:16;;;;;;;;;;;;;;;22.06;32.04;98068.38;5011797;28;959;-81
2021/11/04 04:29:42;;;;;;;;;;;;;;;22.15;32.07;98079.09;5009837;28;1573;-80
2021/11/04 04:32:08;;;;;;;;;;;;;;;22.13;31.77;98079.56;5012663;28;881;-80
2021/11/04 04:34:34;;;;;;;;;;;;;;;22.00;32.01;98079.47;5009831;28;1219;-80
2021/11/04 04:36:59;;;;;;;;;;;;;;;21.98;31.98;98081.16;5014607;28;1904;-80
2021/11/04 04:39:25;;;;;;;;;;;;;;;22.04;31.82;98093.53;5051105;28;1604;-80
2021/11/04 04:41:51;;;;;;;;;;;;;;;22.01;31.88;98083.09;5053771;28;912;-80
2021/11/04 04:44:16;;;;;;;;;;;;;;;22.15;31.44;98087.59;5051876;28;1014;-80
2021/11/04 04:46:41;;;;;;;;;;;;;;;22.11;31.58;98082.03;5053852;28;945;-80
2021/11/04 04:49:07;;;;;;;;;;;;;;;21.96;31.38;98077.97;5051187;28;1564;-79
2021/11/04 04:51:32;;;;;;;;;;;;;;;22.01;31.80;98083.09;5053287;28;921;-80
2021/11/04 04:53:58;;;;;;;;;;;;;;;22.45;32.50;98075.03;5051674;28;953;-80
2021/11/04 04:56:23;;;;;;;;;;;;;;;22.26;33.71;98077.56;5052891;28;1952;-79
2021/11/04 04:58:49;;;;;;;;;;;;;;;22.25;33.99;98087.31;5051019;28;1886;-79
2021/11/04 05:01:14;;;;;;;;;;;;;;;22.15;33.72;98088.41;5035042;28;973;-80
2021/11/04 05:03:40;;;;;;;;;;;;;;;22.24;33.08;98091.41;5050345;28;926;-80
2021/11/04 05:06:06;;;;;;;;;;;;;;;22.27;32.44;98099.00;5053319;28;1250;-80
2021/11/04 05:08:31;;;;;;;;;;;;;;;22.19;32.55;98100.44;5050334;28;934;-79
2021/11/04 05:10:56;;;;;;;;;;;;;;;22.33;32.06;98104.94;5053832;28;1025;-79
2021/11/04 05:13:22;;;;;;;;;;;;;;;22.31;32.24;98102.53;5034435;28;958;-81
2021/11/04 05:15:47;;;;;;;;;;;;;;;22.24;32.13;98108.41;5057284;28;1894;-80
2021/11/04 05:18:13;;;;;;;;;;;;;;;22.02;32.40;98101.66;5054802;28;1326;-80
2021/11/04 05:20:38;;;;;;;;;;;;;;;22.07;32.17;98098.28;5056911;28;1415;-79
2021/11/04 05:23:07;;;;;;;;;;;;;;;22.15;32.06;98108.25;5054838;28;1745;-80
2021/11/04 05:25:32;;;;;;;;;;;;;;;22.05;31.86;98110.09;5056355;28;848;-79
2021/11/04 05:27:58;;;;;;;;;;;;;;;22.21;31.37;98114.94;5053510;28;1021;-80
2021/11/04 05:30:23;;;;;;;;;;;;;;;22.11;31.51;98116.03;5054313;28;995;-80
2021/11/04 05:32:49;;;;;;;;;;;;;;;22.19;31.71;98117.44;5053769;28;1004;-80
2021/11/04 05:35:14;;;;;;;;;;;;;;;20.60;31.55;97882.50;5053553;28;946;-80
2021/11/04 05:37:40;;;;;;;;;;;;;;;22.10;31.37;98120.09;5054308;28;1890;-81
2021/11/04 05:40:06;;;;;;;;;;;;;;;22.14;31.68;98115.16;5053386;28;993;-79
2021/11/04 05:42:31;;;;;;;;;;;;;;;22.12;31.35;98117.63;5021129;28;1267;-79
2021/11/04 05:44:56;;;;;;;;;;;;;;;21.89;31.81;98126.31;5052918;28;966;-78
2021/11/04 05:47:22;;;;;;;;;;;;;;;22.18;31.21;98115.06;5059004;28;1219;-79
2021/11/04 05:49:47;;;;;;;;;;;;;;;22.44;32.39;98115.97;5060291;28;1291;-80
2021/11/04 05:52:13;;;;;;;;;;;;;;;22.32;33.26;98121.13;5063792;28;1336;-80
2021/11/04 05:54:39;;;;;;;;;;;;;;;22.35;33.71;98122.28;5030936;28;1317;-80
2021/11/04 05:57:04;;;;;;;;;;;;;;;22.21;33.45;98117.00;5063792;28;1890;-81
2021/11/04 05:59:30;;;;;;;;;;;;;;;22.19;33.18;98114.63;5043598;28;1221;-81
2021/11/04 06:01:55;;;;;;;;;;;;;;;22.19;32.57;98114.63;5043995;28;1270;-81
2021/11/04 06:04:21;;;;;;;;;;;;;;;22.28;31.97;98122.47;5042777;28;1366;-81
2021/11/04 06:06:46;;;;;;;;;;;;;;;22.15;32.36;98128.06;5042552;28;1368;-80
2021/11/04 06:09:12;;;;;;;;;;;;;;;22.15;32.45;98128.06;5041616;28;1265;-81
2021/11/04 06:11:37;;;;;;;;;;;;;;;22.22;32.25;98127.88;5018489;28;1313;-82
2021/11/04 06:14:03;;;;;;;;;;;;;;;22.24;31.80;98125.41;5042719;28;1269;-81
2021/11/04 06:16:28;;;;;;;;;;;;;;;22.18;31.81;98127.19;5032498;28;1887;-81
2021/11/04 06:18:53;;;;;;;;;;;;;;;22.24;31.64;98131.06;5031419;28;1312;-81
2021/11/04 06:21:19;;;;;;;;;;;;;;;22.25;31.79;98129.81;5022212;28;1178;-81
2021/11/04 06:23:45;;;;;;;;;;;;;;;22.18;31.80;98127.19;5011528;28;1317;-81
2021/11/04 06:26:11;;;;;;;;;;;;;;;21.97;31.68;98133.41;5013480;28;1258;-82
2021/11/04 06:28:36;;;;;;;;;;;;;;;22.05;31.86;98140.47;5010458;28;1337;-82
2021/11/04 06:31:02;;;;;;;;;;;;;;;22.10;31.49;98131.41;5014316;28;1313;-81
2021/11/04 06:33:27;;;;;;;;;;;;;;;22.24;31.29;98138.78;4990189;28;1121;-82
2021/11/04 06:35:54;;;;;;;;;;;;;;;22.16;31.35;98143.03;5012076;28;1979;-81
2021/11/04 06:38:19;;;;;;;;;;;;;;;22.28;31.27;98136.66;4992328;28;1360;-81
2021/11/04 06:40:45;;;;;;;;;;;;;;;22.06;31.58;98133.53;4994051;28;1363;-82
2021/11/04 06:43:12;;;;;;;;;;;;;;;22.18;31.12;98147.03;4991945;28;1324;-80
2021/11/04 06:45:38;;;;;;;;;;;;;;;21.94;31.77;98139.94;4993829;28;1285;-81
2021/11/04 06:48:03;;;;;;;;;;;;;;;21.97;31.70;98133.41;5002889;28;1235;-81
2021/11/04 06:50:30;;;;;;;;;;;;;;;22.23;32.18;98135.16;4996987;28;944;-82
2021/11/04 06:53:03;;;;;;;;;;;;;;;22.37;33.02;98145.28;5002572;28;1412;-81
2021/11/04 06:55:28;;;;;;;;;;;;;;;22.43;33.58;98137.03;4996655;28;1234;-82
2021/11/04 06:57:57;;;;;;;;;;;;;;;22.21;33.56;98145.34;5003616;28;1883;-80
2021/11/04 07:00:22;;;;;;;;;;;;;;;22.08;33.68;98151.72;4966727;28;1140;-81
2021/11/04 07:02:52;;;;;;;;;;;;;;;22.17;33.10;98158.78;4979208;28;1216;-78
2021/11/04 07:05:18;;;;;;;;;;;;;;;22.31;32.35;98159.22;4965951;28;1211;-80
2021/11/04 07:07:46;;;;;;;;;;;;;;;22.31;32.48;98159.22;4982038;28;1389;-80
2021/11/04 07:10:12;;;;;;;;;;;;;;;22.19;32.45;98151.47;4982723;28;1292;-80
2021/11/04 07:12:41;;;;;;;;;;;;;;;22.22;32.14;98156.22;4983835;28;1327;-81
2021/11/04 07:15:06;;;;;;;;;;;;;;;22.16;32.13;98163.66;4981250;28;1425;-80
2021/11/04 07:17:32;;;;;;;;;;;;;;;22.15;32.27;98155.63;4982020;28;1895;-81
2021/11/04 07:19:57;;;;;;;;;;;;;;;22.21;31.71;98157.47;5000573;28;1243;-80
2021/11/04 07:22:43;;;;;;;;;;;;;;;22.06;32.37;98159.06;5023565;28;1231;-81
2021/11/04 07:25:09;;;;;;;;;;;;;;;22.12;31.85;98173.50;5015645;28;1288;-80
2021/11/04 07:27:43;;;;;;;;;;;;;;;22.00;32.27;98172.16;5022012;28;1175;-81
2021/11/04 07:30:10;;;;;;;;;;;;;;;22.09;31.59;98170.31;5018759;28;1333;-81
2021/11/04 07:32:36;;;;;;;;;;;;;;;22.06;31.72;98181.72;5033052;28;1300;-81
2021/11/04 07:35:02;;;;;;;;;;;;;;;22.16;31.50;98169.34;4990958;28;1419;-81
2021/11/04 07:37:31;;;;;;;;;;;;;;;22.23;31.54;98174.84;4991590;28;1895;-80
2021/11/04 07:39:56;;;;;;;;;;;;;;;22.21;31.51;98171.63;5010261;28;1280;-81
2021/11/04 07:42:22;;;;;;;;;;;;;;;22.07;31.71;98171.97;5012311;28;1378;-81
2021/11/04 07:44:47;;;;;;;;;;;;;;;22.01;31.56;98185.09;5011255;28;1397;-81
2021/11/04 07:47:13;;;;;;;;;;;;;;;21.96;31.57;98188.44;5012256;28;1335;-81
2021/11/04 07:49:38;;;;;;;;;;;;;;;22.08;31.38;98184.91;5010865;28;1326;-80
2021/11/04 07:52:06;;;;;;;;;;;;;;;22.17;31.41;98182.25;5012904;28;1402;-81
2021/11/04 07:54:31;;;;;;;;;;;;;;;22.16;31.14;98172.16;5008740;28;1323;-81
2021/11/04 07:56:57;;;;;;;;;;;;;;;22.00;31.54;98175.00;5012390;28;1919;-80
2021/11/04 07:59:24;;;;;;;;;;;;;;;22.07;31.16;98169.13;4994732;28;1319;-80
2021/11/04 08:01:49;;;;;;;;;;;;;;;22.22;31.44;98178.88;5012487;28;1500;-81
2021/11/04 08:04:15;;;;;;;;;;;;;;;22.53;32.47;98169.97;5010472;28;1346;-81
2021/11/04 08:06:40;;;;;;;;;;;;;;;22.48;33.02;98173.34;5010779;28;1133;-82
2021/11/04 08:09:06;;;;;;;;;;;;;;;22.45;33.74;98174.25;5051858;28;1183;-81
2021/11/04 08:11:31;;;;;;;;;;;;;;;22.51;34.11;98169.63;5052970;28;1247;-82
2021/11/04 08:13:56;;;;;;;;;;;;;;;22.30;33.98;98168.97;5040744;28;1353;-81
2021/11/04 08:16:22;;;;;;;;;;;;;;;22.26;33.51;98173.94;5039916;28;1958;-81
2021/11/04 08:18:47;;;;;;;;;;;;;;;22.20;33.35;98174.94;5040594;28;1381;-80
2021/11/04 08:21:13;;;;;;;;;;;;;;;22.24;32.64;98179.25;5043233;28;1310;-81
2021/11/04 08:23:38;;;;;;;;;;;;;;;22.26;32.77;98185.28;5037794;28;1357;-81
2021/11/04 08:26:05;;;;;;;;;;;;;;;22.28;32.25;98177.13;5042260;28;1341;-80
2021/11/04 08:28:31;;;;;;;;;;;;;;;22.24;32.29;98176.44;5040193;28;1326;-81
2021/11/04 08:30:56;;;;;;;;;;;;;;;22.21;31.88;98165.19;5039995;28;1399;-80
2021/11/04 08:33:21;;;;;;;;;;;;;;;22.29;32.01;98161.72;5036599;28;1330;-81
2021/11/04 08:35:47;;;;;;;;;;;;;;;22.11;32.21;98155.72;5042167;28;1957;-81
2021/11/04 08:38:13;;;;;;;;;;;;;;;22.19;31.91;98162.00;5039625;28;1376;-81
2021/11/04 08:40:39;;;;;;;;;;;;;;;22.27;31.39;98164.19;5038959;28;1461;-80
2021/11/04 08:43:04;;;;;;;;;;;;;;;22.09;31.59;98161.81;5043517;28;1315;-79
2021/11/04 08:45:29;;;;;;;;;;;;;;;22.30;31.48;98156.84;5034887;28;1314;-80
2021/11/04 08:47:55;;;;;;;;;;;;;;;22.05;32.62;98165.97;5041815;28;1016;-79
2021/11/04 08:50:20;;;;;;;;;;;;;;;21.81;35.16;98165.34;5037149;28;960;-77
2021/11/04 08:52:52;;;;;;;;;;;;;;;22.48;34.62;98159.16;5037385;28;945;-79
2021/11/04 08:55:17;;;;;;;;;;;;;;;22.49;35.79;98155.13;5037670;28;883;-77
2021/11/04 08:57:43;;;;;;;;;;;;;;;22.15;36.72;98156.41;5002150;28;1969;-76
2021/11/04 09:00:09;;;;;;;;;;;;;;;21.99;37.27;98153.56;5035855;28;1195;-77
2021/11/04 09:02:34;;;;;;;;;;;;;;;22.41;36.82;98156.53;4970597;28;1415;-77
2021/11/04 09:05:02;;;;;;;;;;;;;;;23.09;34.73;98144.06;5024593;28;1089;-81
2021/11/04 09:07:27;;;;;;;;;;;;;;;22.66;34.89;98142.47;4963366;29;1248;-81
2021/11/04 09:09:53;;;;;;;;;;;;;;;22.63;34.45;98151.84;4950461;29;1149;-81
2021/11/04 09:12:18;;;;;;;;;;;;;;;22.66;33.80;98144.50;4924138;29;1186;-82
2021/11/04 09:14:44;;;;;;;;;;;;;;;22.69;32.98;98147.25;4904956;29;1111;-82
2021/11/04 09:17:14;;;;;;;;;;;;;;;22.84;32.59;98145.56;4888113;29;1892;-81
2021/11/04 09:19:39;;;;;;;;;;;;;;;22.70;32.34;98139.53;4886432;29;1187;-82
2021/11/04 09:22:05;;;;;;;;;;;;;;;22.52;32.32;98134.34;4879650;29;1048;-81
2021/11/04 09:24:30;;;;;;;;;;;;;;;22.68;31.60;98136.34;4884106;29;1423;-81
2021/11/04 09:26:56;;;;;;;;;;;;;;;22.65;31.84;98138.03;4886805;29;1336;-82
2021/11/04 09:29:21;;;;;;;;;;;;;;;22.48;32.02;98133.66;4885068;29;1302;-81
2021/11/04 09:31:50;;;;;;;;;;;;;;;22.68;31.11;98142.00;4885159;29;1268;-82
2021/11/04 09:34:15;;;;;;;;;;;;;;;22.62;31.21;98130.41;4883124;29;1391;-80
2021/11/04 09:36:41;;;;;;;;;;;;;;;22.69;31.28;98133.06;4905220;29;1896;-82
2021/11/04 09:39:06;;;;;;;;;;;;;;;22.22;31.75;98127.88;4949603;29;1213;-82
2021/11/04 09:41:32;;;;;;;;;;;;;;;22.42;31.51;98129.78;4960610;29;1291;-82
2021/11/04 09:43:58;;;;;;;;;;;;;;;22.22;31.51;98116.53;5014638;28;1149;-82
2021/11/04 09:46:24;;;;;;;;;;;;;;;22.26;31.49;98111.56;5010964;28;889;-82
2021/11/04 09:48:50;;;;;;;;;;;;;;;22.53;30.68;98122.56;5024160;28;968;-82
2021/11/04 09:51:15;;;;;;;;;;;;;;;22.59;30.37;98120.00;5011084;28;939;-81
2021/11/04 09:53:42;;;;;;;;;;;;;;;22.25;30.85;98115.66;5008665;28;1029;-82
2021/11/04 09:56:08;;;;;;;;;;;;;;;22.49;30.86;98112.59;5011941;28;1883;-81
2021/11/04 09:58:33;;;;;;;;;;;;;;;22.44;30.70;98115.97;5008535;28;954;-82
2021/11/04 10:01:17;;;;;;;;;;;;;;;22.36;30.64;98121.81;5014105;28;1021;-81
2021/11/04 10:03:43;;;;;;;;;;;;;;;22.24;30.72;98125.41;5012472;28;1017;-82
2021/11/04 10:06:15;;;;;;;;;;;;;;;22.43;30.82;98125.69;5014192;28;1120;-82
2021/11/04 10:08:41;;;;;;;;;;;;;;;22.43;30.50;98117.19;4963524;28;938;-81
2021/11/04 10:11:11;;;;;;;;;;;;;;;22.32;30.59;98114.66;5014185;28;1010;-80
2021/11/04 10:13:36;;;;;;;;;;;;;;;22.26;30.77;98111.56;5011193;28;1963;-81
2021/11/04 10:16:02;;;;;;;;;;;;;;;22.24;30.38;98119.75;4998277;28;1933;-81
2021/11/04 10:18:27;;;;;;;;;;;;;;;22.42;30.38;98124.09;5010936;28;955;-82
2021/11/04 10:20:53;;;;;;;;;;;;;;;22.28;30.67;98117.59;5026170;28;1107;-81
2021/11/04 10:23:18;;;;;;;;;;;;;;;22.24;30.82;98119.75;5043850;28;1388;-81
2021/11/04 10:25:44;;;;;;;;;;;;;;;22.39;30.26;98113.69;5044351;28;1217;-82
2021/11/04 10:28:22;;;;;;;;;;;;;;;22.42;30.44;98119.22;5043705;28;1349;-82
2021/11/04 10:30:47;;;;;;;;;;;;;;;22.54;30.01;98114.88;5046144;28;1147;-81
2021/11/04 10:33:23;;;;;;;;;;;;;;;22.44;30.15;98116.75;5019151;28;1329;-81
2021/11/04 10:35:52;;;;;;;;;;;;;;;22.34;30.26;98112.97;4999436;28;1938;-81
2021/11/04 10:38:18;;;;;;;;;;;;;;;22.35;30.08;98117.41;5005023;28;1071;-79
2021/11/04 10:40:43;;;;;;;;;;;;;;;22.16;30.47;98121.16;4990985;28;1106;-79
2021/11/04 10:43:08;;;;;;;;;;;;;;;22.32;30.19;98114.66;5004009;28;1031;-79
2021/11/04 10:45:34;;;;;;;;;;;;;;;22.18;30.34;98110.19;5007048;28;916;-77
2021/11/04 10:48:18;;;;;;;;;;;;;;;22.23;30.24;98103.19;5005096;28;939;-79
2021/11/04 10:50:43;;;;;;;;;;;;;;;22.26;30.27;98117.25;5006074;28;1428;-79
2021/11/04 10:53:10;;;;;;;;;;;;;;;22.18;30.36;98098.84;5006659;28;923;-80
2021/11/04 10:55:35;;;;;;;;;;;;;;;22.29;30.34;98104.22;5007611;28;940;-78
2021/11/04 10:58:06;;;;;;;;;;;;;;;22.43;30.17;98103.81;5006704;28;1914;-80
2021/11/04 11:00:31;;;;;;;;;;;;;;;22.52;29.73;98101.13;5010272;28;1121;-80
2021/11/04 11:02:57;;;;;;;;;;;;;;;22.16;30.28;98095.66;5012962;28;1160;-80
2021/11/04 11:05:26;;;;;;;;;;;;;;;22.24;30.46;98091.41;5037423;28;1123;-79
2021/11/04 11:07:51;;;;;;;;;;;;;;;22.28;30.29;98094.94;5020278;28;1301;-80
2021/11/04 11:10:17;;;;;;;;;;;;;;;22.39;29.89;98091.78;5036772;28;1214;-79
2021/11/04 11:12:42;;;;;;;;;;;;;;;22.53;29.65;98087.72;5023504;28;1231;-80
2021/11/04 11:15:09;;;;;;;;;;;;;;;22.31;30.16;98084.72;5022466;28;1257;-79
2021/11/04 11:17:37;;;;;;;;;;;;;;;22.38;29.92;98083.72;5000142;28;1966;-80
2021/11/04 11:20:02;;;;;;;;;;;;;;;22.18;30.34;98081.84;4976159;28;1196;-80
2021/11/04 11:22:28;;;;;;;;;;;;;;;22.19;30.16;98079.81;4977035;28;1323;-80
2021/11/04 11:24:54;;;;;;;;;;;;;;;22.40;29.80;98081.25;4976433;28;1271;-80
2021/11/04 11:27:19;;;;;;;;;;;;;;;22.40;30.02;98090.53;4979565;28;1275;-80
2021/11/04 11:29:47;;;;;;;;;;;;;;;22.39;30.16;98085.34;4979571;28;1282;-80
2021/11/04 11:32:19;;;;;;;;;;;;;;;22.41;29.72;98085.66;4985676;28;1509;-80
2021/11/04 11:34:47;;;;;;;;;;;;;;;22.26;30.30;98100.22;4980648;28;1360;-81
2021/11/04 11:37:14;;;;;;;;;;;;;;;22.21;30.26;98092.28;4988637;28;1969;-79
2021/11/04 11:39:41;;;;;;;;;;;;;;;22.32;30.12;98081.44;4987428;28;866;-80
2021/11/04 11:42:08;;;;;;;;;;;;;;;22.30;30.19;98088.81;4990462;28;953;-81
2021/11/04 11:44:34;;;;;;;;;;;;;;;22.47;29.63;98092.38;4987679;28;1025;-80
2021/11/04 11:47:03;;;;;;;;;;;;;;;22.00;30.72;98087.16;4988664;28;927;-80
2021/11/04 11:49:33;;;;;;;;;;;;;;;22.10;30.60;98097.41;4970952;28;1017;-80
2021/11/04 11:51:58;;;;;;;;;;;;;;;22.19;30.13;98088.31;4995969;28;1022;-80
2021/11/04 11:54:53;;;;;;;;;;;;;;;22.14;30.36;98092.47;5020403;28;1127;-79
2021/11/04 11:57:18;;;;;;;;;;;;;;;22.35;29.79;98091.88;4988716;28;1894;-80
2021/11/04 11:59:54;;;;;;;;;;;;;;;22.22;30.03;98085.34;4985653;28;984;-80
2021/11/04 12:02:35;;;;;;;;;;;;;;;22.17;30.20;98082.28;4988793;28;1042;-81
2021/11/04 12:05:20;;;;;;;;;;;;;;;22.27;30.04;98073.47;4986026;28;1372;-80
2021/11/04 12:07:45;;;;;;;;;;;;;;;22.20;30.06;98081.41;4986935;28;936;-80
2021/11/04 12:10:29;;;;;;;;;;;;;;;22.15;30.20;98077.06;4948021;29;951;-80
2021/11/04 12:12:54;;;;;;;;;;;;;;;22.10;30.49;98074.75;4948870;29;994;-80
2021/11/04 12:15:20;;;;;;;;;;;;;;;22.18;30.12;98070.50;4932623;29;970;-80
2021/11/04 12:18:04;;;;;;;;;;;;;;;22.21;29.97;98075.28;4948828;29;1899;-80
2021/11/04 12:20:29;;;;;;;;;;;;;;;22.73;31.69;98070.53;4949678;29;910;-80
2021/11/04 12:22:55;;;;;;;;;;;;;;;22.66;32.51;98076.44;4948474;29;1154;-80
2021/11/04 12:25:20;;;;;;;;;;;;;;;22.62;33.21;98065.19;4949210;29;925;-79
2021/11/04 12:27:46;;;;;;;;;;;;;;;22.29;33.29;98076.69;4948961;29;1028;-80
2021/11/04 12:30:14;;;;;;;;;;;;;;;22.38;32.78;98066.72;4948000;29;958;-80
2021/11/04 12:32:39;;;;;;;;;;;;;;;22.58;32.18;98068.13;4951930;28;1094;-80
2021/11/04 12:35:05;;;;;;;;;;;;;;;22.32;32.43;98063.63;4986055;28;976;-80
2021/11/04 12:37:31;;;;;;;;;;;;;;;22.32;31.86;98064.41;4988841;28;1956;-80
2021/11/04 12:39:57;;;;;;;;;;;;;;;22.40;31.63;98064.25;4985850;28;1004;-80
2021/11/04 12:42:23;;;;;;;;;;;;;;;22.49;31.42;98061.53;4988230;28;1243;-81
2021/11/04 12:44:48;;;;;;;;;;;;;;;22.55;31.03;98060.53;4970765;28;923;-81
2021/11/04 12:47:17;;;;;;;;;;;;;;;22.46;31.38;98056.75;4988641;28;1100;-80
2021/11/04 12:49:42;;;;;;;;;;;;;;;22.38;31.33;98061.03;4985956;28;1104;-81
2021/11/04 12:52:09;;;;;;;;;;;;;;;22.40;30.98;98064.25;4971586;28;916;-80
2021/11/04 12:54:38;;;;;;;;;;;;;;;22.10;31.45;98057.75;4947579;29;1037;-81
2021/11/04 12:57:05;;;;;;;;;;;;;;;22.19;31.12;98063.59;4950312;29;1983;-81